sensor_id;sensor_type;location;lat;lon;timestamp;P1;durP1;ratioP1;P2;durP2;ratioP2
71836;SDS011;59686;51.716;7.016;2023-09-19T00:02:16;6.40;;;2.38;;
71836;SDS011;59686;51.716;7.016;2023-09-19T00:04:42;4.90;;;2.03;;
71836;SDS011;59686;51.716;7.016;2023-09-19T00:07:08;7.55;;;2.50;;
71836;SDS011;59686;51.716;7.016;2023-09-19T00:09:34;6.10;;;2.63;;
71836;SDS011;59686;51.716;7.016;2023-09-19T00:12:06;5.07;;;2.42;;
71836;SDS011;59686;51.716;7.016;2023-09-19T00:14:34;5.30;;;2.13;;
71836;SDS011;59686;51.716;7.016;2023-09-19T00:17:01;8.30;;;2.08;;
71836;SDS011;59686;51.716;7.016;2023-09-19T00:19:33;7.60;;;2.50;;
71836;SDS011;59686;51.716;7.016;2023-09-19T00:22:00;5.20;;;2.35;;
71836;SDS011;59686;51.716;7.016;2023-09-19T00:24:26;3.17;;;2.15;;
71836;SDS011;59686;51.716;7.016;2023-09-19T00:26:53;5.50;;;2.45;;
71836;SDS011;59686;51.716;7.016;2023-09-19T00:29:20;5.07;;;2.30;;
71836;SDS011;59686;51.716;7.016;2023-09-19T00:31:46;4.47;;;2.58;;
71836;SDS011;59686;51.716;7.016;2023-09-19T00:34:12;6.90;;;2.47;;
71836;SDS011;59686;51.716;7.016;2023-09-19T00:36:38;6.05;;;2.28;;
71836;SDS011;59686;51.716;7.016;2023-09-19T00:39:05;4.07;;;2.63;;
71836;SDS011;59686;51.716;7.016;2023-09-19T00:41:32;6.93;;;2.70;;
71836;SDS011;59686;51.716;7.016;2023-09-19T00:44:00;5.93;;;2.22;;
71836;SDS011;59686;51.716;7.016;2023-09-19T00:46:26;6.10;;;2.20;;
71836;SDS011;59686;51.716;7.016;2023-09-19T00:48:52;5.78;;;2.35;;
71836;SDS011;59686;51.716;7.016;2023-09-19T00:51:19;6.80;;;2.50;;
71836;SDS011;59686;51.716;7.016;2023-09-19T00:53:48;6.15;;;2.28;;
71836;SDS011;59686;51.716;7.016;2023-09-19T00:56:14;8.80;;;2.75;;
71836;SDS011;59686;51.716;7.016;2023-09-19T00:58:43;7.13;;;2.40;;
71836;SDS011;59686;51.716;7.016;2023-09-19T01:01:15;6.45;;;2.28;;
71836;SDS011;59686;51.716;7.016;2023-09-19T01:03:42;5.65;;;2.40;;
71836;SDS011;59686;51.716;7.016;2023-09-19T01:06:09;6.60;;;2.20;;
71836;SDS011;59686;51.716;7.016;2023-09-19T01:08:35;7.82;;;2.60;;
71836;SDS011;59686;51.716;7.016;2023-09-19T01:13:43;5.82;;;1.95;;
71836;SDS011;59686;51.716;7.016;2023-09-19T01:22:21;7.10;;;2.38;;
71836;SDS011;59686;51.716;7.016;2023-09-19T01:30:47;9.60;;;2.90;;
71836;SDS011;59686;51.716;7.016;2023-09-19T01:36:35;5.80;;;2.22;;
71836;SDS011;59686;51.716;7.016;2023-09-19T01:39:05;7.55;;;2.55;;
71836;SDS011;59686;51.716;7.016;2023-09-19T01:44:25;6.63;;;2.30;;
71836;SDS011;59686;51.716;7.016;2023-09-19T01:47:03;9.45;;;2.65;;
71836;SDS011;59686;51.716;7.016;2023-09-19T01:49:37;9.18;;;2.63;;
71836;SDS011;59686;51.716;7.016;2023-09-19T01:52:15;9.10;;;2.45;;
71836;SDS011;59686;51.716;7.016;2023-09-19T01:54:51;5.10;;;2.30;;
71836;SDS011;59686;51.716;7.016;2023-09-19T02:00:03;9.88;;;2.70;;
71836;SDS011;59686;51.716;7.016;2023-09-19T02:02:35;8.52;;;2.72;;
71836;SDS011;59686;51.716;7.016;2023-09-19T02:05:03;6.50;;;2.05;;
71836;SDS011;59686;51.716;7.016;2023-09-19T02:07:29;6.85;;;2.53;;
71836;SDS011;59686;51.716;7.016;2023-09-19T02:09:57;8.45;;;2.70;;
71836;SDS011;59686;51.716;7.016;2023-09-19T02:12:25;6.30;;;2.40;;
71836;SDS011;59686;51.716;7.016;2023-09-19T02:14:51;6.88;;;2.65;;
71836;SDS011;59686;51.716;7.016;2023-09-19T02:17:17;5.80;;;2.63;;
71836;SDS011;59686;51.716;7.016;2023-09-19T02:19:43;7.47;;;2.22;;
71836;SDS011;59686;51.716;7.016;2023-09-19T02:22:08;7.97;;;2.55;;
71836;SDS011;59686;51.716;7.016;2023-09-19T02:24:36;8.80;;;2.72;;
71836;SDS011;59686;51.716;7.016;2023-09-19T02:27:03;7.57;;;2.33;;
71836;SDS011;59686;51.716;7.016;2023-09-19T02:29:29;9.63;;;2.40;;
71836;SDS011;59686;51.716;7.016;2023-09-19T02:31:55;6.90;;;2.72;;
71836;SDS011;59686;51.716;7.016;2023-09-19T02:34:24;7.55;;;2.30;;
71836;SDS011;59686;51.716;7.016;2023-09-19T02:36:50;5.65;;;2.28;;
71836;SDS011;59686;51.716;7.016;2023-09-19T02:39:18;7.05;;;2.58;;
71836;SDS011;59686;51.716;7.016;2023-09-19T02:41:44;5.38;;;2.50;;
71836;SDS011;59686;51.716;7.016;2023-09-19T02:44:11;8.40;;;2.50;;
71836;SDS011;59686;51.716;7.016;2023-09-19T02:46:37;8.43;;;2.72;;
71836;SDS011;59686;51.716;7.016;2023-09-19T02:49:03;5.28;;;2.22;;
71836;SDS011;59686;51.716;7.016;2023-09-19T02:51:32;7.63;;;2.95;;
71836;SDS011;59686;51.716;7.016;2023-09-19T02:54:01;7.32;;;2.75;;
71836;SDS011;59686;51.716;7.016;2023-09-19T02:56:28;10.60;;;2.80;;
71836;SDS011;59686;51.716;7.016;2023-09-19T02:58:55;10.38;;;2.92;;
71836;SDS011;59686;51.716;7.016;2023-09-19T03:01:21;7.47;;;2.53;;
71836;SDS011;59686;51.716;7.016;2023-09-19T03:03:47;7.68;;;2.60;;
71836;SDS011;59686;51.716;7.016;2023-09-19T03:06:13;6.65;;;2.38;;
71836;SDS011;59686;51.716;7.016;2023-09-19T03:08:39;8.35;;;2.60;;
71836;SDS011;59686;51.716;7.016;2023-09-19T03:11:07;5.10;;;2.25;;
71836;SDS011;59686;51.716;7.016;2023-09-19T03:13:36;10.63;;;2.78;;
71836;SDS011;59686;51.716;7.016;2023-09-19T03:16:04;8.57;;;2.83;;
71836;SDS011;59686;51.716;7.016;2023-09-19T03:18:36;6.00;;;2.22;;
71836;SDS011;59686;51.716;7.016;2023-09-19T03:21:03;9.65;;;2.72;;
71836;SDS011;59686;51.716;7.016;2023-09-19T03:23:29;10.57;;;2.47;;
71836;SDS011;59686;51.716;7.016;2023-09-19T03:25:55;5.00;;;2.65;;
71836;SDS011;59686;51.716;7.016;2023-09-19T03:28:21;6.63;;;2.38;;
71836;SDS011;59686;51.716;7.016;2023-09-19T03:31:04;6.38;;;2.30;;
71836;SDS011;59686;51.716;7.016;2023-09-19T03:33:31;7.18;;;2.22;;
71836;SDS011;59686;51.716;7.016;2023-09-19T03:35:58;7.72;;;2.67;;
71836;SDS011;59686;51.716;7.016;2023-09-19T03:38:27;6.95;;;2.47;;
71836;SDS011;59686;51.716;7.016;2023-09-19T03:40:54;10.07;;;2.80;;
71836;SDS011;59686;51.716;7.016;2023-09-19T03:43:19;7.78;;;2.65;;
71836;SDS011;59686;51.716;7.016;2023-09-19T03:45:45;8.07;;;2.60;;
71836;SDS011;59686;51.716;7.016;2023-09-19T03:48:16;5.80;;;2.83;;
71836;SDS011;59686;51.716;7.016;2023-09-19T03:50:42;8.77;;;2.47;;
71836;SDS011;59686;51.716;7.016;2023-09-19T03:53:09;7.75;;;2.55;;
71836;SDS011;59686;51.716;7.016;2023-09-19T03:55:34;7.70;;;2.38;;
71836;SDS011;59686;51.716;7.016;2023-09-19T03:58:03;8.18;;;2.28;;
71836;SDS011;59686;51.716;7.016;2023-09-19T04:00:29;6.90;;;2.50;;
71836;SDS011;59686;51.716;7.016;2023-09-19T04:02:54;9.32;;;2.65;;
71836;SDS011;59686;51.716;7.016;2023-09-19T04:05:24;6.50;;;2.72;;
71836;SDS011;59686;51.716;7.016;2023-09-19T04:07:49;5.25;;;2.38;;
71836;SDS011;59686;51.716;7.016;2023-09-19T04:10:15;4.85;;;2.30;;
71836;SDS011;59686;51.716;7.016;2023-09-19T04:12:50;4.47;;;2.17;;
71836;SDS011;59686;51.716;7.016;2023-09-19T04:15:17;5.85;;;2.50;;
71836;SDS011;59686;51.716;7.016;2023-09-19T04:17:43;8.43;;;2.92;;
71836;SDS011;59686;51.716;7.016;2023-09-19T04:20:08;8.02;;;2.42;;
71836;SDS011;59686;51.716;7.016;2023-09-19T04:22:37;7.10;;;2.45;;
71836;SDS011;59686;51.716;7.016;2023-09-19T04:25:04;6.22;;;2.50;;
71836;SDS011;59686;51.716;7.016;2023-09-19T04:27:31;8.57;;;2.65;;
71836;SDS011;59686;51.716;7.016;2023-09-19T04:29:57;7.53;;;2.53;;
71836;SDS011;59686;51.716;7.016;2023-09-19T04:32:24;9.02;;;2.72;;
71836;SDS011;59686;51.716;7.016;2023-09-19T04:34:53;6.70;;;2.35;;
71836;SDS011;59686;51.716;7.016;2023-09-19T04:37:20;6.93;;;2.38;;
71836;SDS011;59686;51.716;7.016;2023-09-19T04:39:46;4.80;;;2.00;;
71836;SDS011;59686;51.716;7.016;2023-09-19T04:42:13;5.85;;;2.30;;
71836;SDS011;59686;51.716;7.016;2023-09-19T04:44:39;5.03;;;2.40;;
71836;SDS011;59686;51.716;7.016;2023-09-19T04:47:05;5.70;;;2.60;;
71836;SDS011;59686;51.716;7.016;2023-09-19T04:49:31;7.82;;;2.25;;
71836;SDS011;59686;51.716;7.016;2023-09-19T04:51:57;6.45;;;2.20;;
71836;SDS011;59686;51.716;7.016;2023-09-19T04:54:22;9.07;;;2.97;;
71836;SDS011;59686;51.716;7.016;2023-09-19T04:56:48;9.43;;;2.35;;
71836;SDS011;59686;51.716;7.016;2023-09-19T04:59:14;5.80;;;2.45;;
71836;SDS011;59686;51.716;7.016;2023-09-19T05:01:41;4.00;;;2.30;;
71836;SDS011;59686;51.716;7.016;2023-09-19T05:04:06;5.45;;;2.10;;
71836;SDS011;59686;51.716;7.016;2023-09-19T05:06:32;7.78;;;2.38;;
71836;SDS011;59686;51.716;7.016;2023-09-19T05:09:01;8.98;;;2.92;;
71836;SDS011;59686;51.716;7.016;2023-09-19T05:11:30;8.38;;;2.38;;
71836;SDS011;59686;51.716;7.016;2023-09-19T05:13:55;4.78;;;2.53;;
71836;SDS011;59686;51.716;7.016;2023-09-19T05:16:21;5.28;;;2.38;;
71836;SDS011;59686;51.716;7.016;2023-09-19T05:18:47;8.82;;;2.50;;
71836;SDS011;59686;51.716;7.016;2023-09-19T05:21:14;5.05;;;2.03;;
71836;SDS011;59686;51.716;7.016;2023-09-19T05:23:40;6.97;;;2.05;;
71836;SDS011;59686;51.716;7.016;2023-09-19T05:26:07;4.38;;;2.17;;
71836;SDS011;59686;51.716;7.016;2023-09-19T05:28:33;8.98;;;2.33;;
71836;SDS011;59686;51.716;7.016;2023-09-19T05:31:00;6.80;;;2.58;;
71836;SDS011;59686;51.716;7.016;2023-09-19T05:33:30;6.05;;;2.78;;
71836;SDS011;59686;51.716;7.016;2023-09-19T05:35:57;6.32;;;2.13;;
71836;SDS011;59686;51.716;7.016;2023-09-19T05:38:22;6.28;;;2.42;;
71836;SDS011;59686;51.716;7.016;2023-09-19T05:40:49;5.55;;;2.45;;
71836;SDS011;59686;51.716;7.016;2023-09-19T05:43:18;6.18;;;2.13;;
71836;SDS011;59686;51.716;7.016;2023-09-19T05:45:44;7.75;;;2.50;;
71836;SDS011;59686;51.716;7.016;2023-09-19T05:48:11;6.20;;;2.33;;
71836;SDS011;59686;51.716;7.016;2023-09-19T05:50:41;8.45;;;2.25;;
71836;SDS011;59686;51.716;7.016;2023-09-19T05:53:08;9.05;;;2.72;;
71836;SDS011;59686;51.716;7.016;2023-09-19T05:55:37;7.75;;;2.47;;
71836;SDS011;59686;51.716;7.016;2023-09-19T05:58:05;4.60;;;2.08;;
71836;SDS011;59686;51.716;7.016;2023-09-19T06:00:31;7.15;;;2.47;;
71836;SDS011;59686;51.716;7.016;2023-09-19T06:02:57;6.80;;;2.40;;
71836;SDS011;59686;51.716;7.016;2023-09-19T06:05:26;5.60;;;2.28;;
71836;SDS011;59686;51.716;7.016;2023-09-19T06:07:54;4.97;;;2.17;;
71836;SDS011;59686;51.716;7.016;2023-09-19T06:10:21;6.32;;;2.28;;
71836;SDS011;59686;51.716;7.016;2023-09-19T06:12:47;5.65;;;2.40;;
71836;SDS011;59686;51.716;7.016;2023-09-19T06:15:13;7.68;;;2.78;;
71836;SDS011;59686;51.716;7.016;2023-09-19T06:17:47;7.05;;;2.33;;
71836;SDS011;59686;51.716;7.016;2023-09-19T06:20:14;5.38;;;2.35;;
71836;SDS011;59686;51.716;7.016;2023-09-19T06:22:45;5.90;;;2.42;;
71836;SDS011;59686;51.716;7.016;2023-09-19T06:25:11;7.25;;;2.35;;
71836;SDS011;59686;51.716;7.016;2023-09-19T06:27:40;6.47;;;2.75;;
71836;SDS011;59686;51.716;7.016;2023-09-19T06:30:08;5.90;;;2.45;;
71836;SDS011;59686;51.716;7.016;2023-09-19T06:32:35;5.97;;;2.45;;
71836;SDS011;59686;51.716;7.016;2023-09-19T06:35:01;4.07;;;2.22;;
71836;SDS011;59686;51.716;7.016;2023-09-19T06:37:28;6.50;;;2.60;;
71836;SDS011;59686;51.716;7.016;2023-09-19T06:39:54;4.63;;;2.15;;
71836;SDS011;59686;51.716;7.016;2023-09-19T06:42:19;9.43;;;2.63;;
71836;SDS011;59686;51.716;7.016;2023-09-19T06:44:48;6.97;;;2.30;;
71836;SDS011;59686;51.716;7.016;2023-09-19T06:47:14;4.95;;;2.50;;
71836;SDS011;59686;51.716;7.016;2023-09-19T06:49:41;8.73;;;2.47;;
71836;SDS011;59686;51.716;7.016;2023-09-19T06:52:09;6.75;;;2.42;;
71836;SDS011;59686;51.716;7.016;2023-09-19T06:54:35;6.93;;;2.42;;
71836;SDS011;59686;51.716;7.016;2023-09-19T06:57:01;6.03;;;2.20;;
71836;SDS011;59686;51.716;7.016;2023-09-19T06:59:27;5.20;;;2.45;;
71836;SDS011;59686;51.716;7.016;2023-09-19T07:01:52;7.13;;;2.70;;
71836;SDS011;59686;51.716;7.016;2023-09-19T07:04:18;7.47;;;2.85;;
71836;SDS011;59686;51.716;7.016;2023-09-19T07:06:50;10.02;;;2.30;;
71836;SDS011;59686;51.716;7.016;2023-09-19T07:09:16;6.32;;;2.50;;
71836;SDS011;59686;51.716;7.016;2023-09-19T07:11:49;7.68;;;2.60;;
71836;SDS011;59686;51.716;7.016;2023-09-19T07:14:16;6.45;;;2.53;;
71836;SDS011;59686;51.716;7.016;2023-09-19T07:16:41;4.72;;;2.42;;
71836;SDS011;59686;51.716;7.016;2023-09-19T07:19:09;7.05;;;2.83;;
71836;SDS011;59686;51.716;7.016;2023-09-19T07:21:35;8.38;;;2.70;;
71836;SDS011;59686;51.716;7.016;2023-09-19T07:24:03;9.55;;;3.00;;
71836;SDS011;59686;51.716;7.016;2023-09-19T07:26:29;4.80;;;2.30;;
71836;SDS011;59686;51.716;7.016;2023-09-19T07:28:56;9.00;;;2.63;;
71836;SDS011;59686;51.716;7.016;2023-09-19T07:31:22;5.07;;;2.42;;
71836;SDS011;59686;51.716;7.016;2023-09-19T07:33:50;6.43;;;2.60;;
71836;SDS011;59686;51.716;7.016;2023-09-19T07:36:16;6.72;;;2.10;;
71836;SDS011;59686;51.716;7.016;2023-09-19T07:38:42;7.65;;;2.78;;
71836;SDS011;59686;51.716;7.016;2023-09-19T07:44:30;8.00;;;2.75;;
71836;SDS011;59686;51.716;7.016;2023-09-19T07:46:56;7.10;;;2.58;;
71836;SDS011;59686;51.716;7.016;2023-09-19T07:49:22;7.15;;;2.70;;
71836;SDS011;59686;51.716;7.016;2023-09-19T07:51:47;9.75;;;3.13;;
71836;SDS011;59686;51.716;7.016;2023-09-19T07:57:35;7.53;;;2.53;;
71836;SDS011;59686;51.716;7.016;2023-09-19T08:00:02;7.20;;;2.80;;
71836;SDS011;59686;51.716;7.016;2023-09-19T08:02:35;7.53;;;2.15;;
71836;SDS011;59686;51.716;7.016;2023-09-19T08:05:05;6.63;;;2.35;;
71836;SDS011;59686;51.716;7.016;2023-09-19T08:07:35;6.25;;;2.55;;
71836;SDS011;59686;51.716;7.016;2023-09-19T08:13:24;7.57;;;2.47;;
71836;SDS011;59686;51.716;7.016;2023-09-19T08:15:50;10.73;;;3.22;;
71836;SDS011;59686;51.716;7.016;2023-09-19T08:21:39;9.75;;;2.90;;
71836;SDS011;59686;51.716;7.016;2023-09-19T08:24:05;11.07;;;2.90;;
71836;SDS011;59686;51.716;7.016;2023-09-19T08:26:31;7.75;;;2.60;;
71836;SDS011;59686;51.716;7.016;2023-09-19T08:28:57;6.20;;;2.42;;
71836;SDS011;59686;51.716;7.016;2023-09-19T08:31:23;7.22;;;2.58;;
71836;SDS011;59686;51.716;7.016;2023-09-19T08:33:51;8.07;;;2.53;;
71836;SDS011;59686;51.716;7.016;2023-09-19T08:36:18;5.20;;;2.60;;
71836;SDS011;59686;51.716;7.016;2023-09-19T08:38:43;8.70;;;2.55;;
71836;SDS011;59686;51.716;7.016;2023-09-19T08:41:09;7.95;;;2.33;;
71836;SDS011;59686;51.716;7.016;2023-09-19T08:43:35;8.13;;;2.72;;
71836;SDS011;59686;51.716;7.016;2023-09-19T08:46:11;9.30;;;2.80;;
71836;SDS011;59686;51.716;7.016;2023-09-19T08:48:39;9.65;;;2.70;;
71836;SDS011;59686;51.716;7.016;2023-09-19T08:51:58;8.27;;;2.58;;
71836;SDS011;59686;51.716;7.016;2023-09-19T08:54:09;9.32;;;2.40;;
71836;SDS011;59686;51.716;7.016;2023-09-19T08:56:50;8.50;;;2.60;;
71836;SDS011;59686;51.716;7.016;2023-09-19T09:02:45;10.18;;;2.67;;
71836;SDS011;59686;51.716;7.016;2023-09-19T09:05:12;6.07;;;2.80;;
71836;SDS011;59686;51.716;7.016;2023-09-19T09:07:42;6.22;;;2.70;;
71836;SDS011;59686;51.716;7.016;2023-09-19T09:10:09;6.85;;;2.58;;
71836;SDS011;59686;51.716;7.016;2023-09-19T09:15:57;9.43;;;2.60;;
71836;SDS011;59686;51.716;7.016;2023-09-19T09:18:24;8.75;;;2.25;;
71836;SDS011;59686;51.716;7.016;2023-09-19T09:20:49;8.52;;;2.42;;
71836;SDS011;59686;51.716;7.016;2023-09-19T09:23:15;8.63;;;2.67;;
71836;SDS011;59686;51.716;7.016;2023-09-19T09:29:03;10.40;;;2.70;;
71836;SDS011;59686;51.716;7.016;2023-09-19T09:31:29;8.27;;;2.55;;
71836;SDS011;59686;51.716;7.016;2023-09-19T09:33:55;9.68;;;2.80;;
71836;SDS011;59686;51.716;7.016;2023-09-19T09:36:35;6.18;;;2.20;;
71836;SDS011;59686;51.716;7.016;2023-09-19T09:39:06;10.55;;;3.10;;
71836;SDS011;59686;51.716;7.016;2023-09-19T09:41:49;9.90;;;2.63;;
71836;SDS011;59686;51.716;7.016;2023-09-19T09:44:16;8.30;;;3.28;;
71836;SDS011;59686;51.716;7.016;2023-09-19T09:46:44;10.70;;;2.47;;
71836;SDS011;59686;51.716;7.016;2023-09-19T09:49:23;9.02;;;2.80;;
71836;SDS011;59686;51.716;7.016;2023-09-19T09:52:02;7.30;;;2.38;;
71836;SDS011;59686;51.716;7.016;2023-09-19T09:54:34;8.77;;;2.72;;
71836;SDS011;59686;51.716;7.016;2023-09-19T10:00:25;10.65;;;2.53;;
71836;SDS011;59686;51.716;7.016;2023-09-19T10:02:57;10.77;;;3.20;;
71836;SDS011;59686;51.716;7.016;2023-09-19T10:05:23;7.60;;;2.75;;
71836;SDS011;59686;51.716;7.016;2023-09-19T10:07:55;8.93;;;3.03;;
71836;SDS011;59686;51.716;7.016;2023-09-19T10:10:38;11.48;;;3.03;;
71836;SDS011;59686;51.716;7.016;2023-09-19T10:13:08;8.38;;;2.80;;
71836;SDS011;59686;51.716;7.016;2023-09-19T10:15:37;10.57;;;2.83;;
71836;SDS011;59686;51.716;7.016;2023-09-19T10:18:05;9.13;;;2.75;;
71836;SDS011;59686;51.716;7.016;2023-09-19T10:20:33;11.50;;;2.85;;
71836;SDS011;59686;51.716;7.016;2023-09-19T10:23:07;8.88;;;2.65;;
71836;SDS011;59686;51.716;7.016;2023-09-19T10:25:38;11.32;;;3.20;;
71836;SDS011;59686;51.716;7.016;2023-09-19T10:28:05;7.05;;;2.70;;
71836;SDS011;59686;51.716;7.016;2023-09-19T10:33:10;7.35;;;2.33;;
71836;SDS011;59686;51.716;7.016;2023-09-19T10:39:00;9.52;;;2.63;;
71836;SDS011;59686;51.716;7.016;2023-09-19T10:44:53;7.97;;;2.72;;
71836;SDS011;59686;51.716;7.016;2023-09-19T10:53:14;7.53;;;2.38;;
71836;SDS011;59686;51.716;7.016;2023-09-19T10:59:25;9.38;;;3.00;;
71836;SDS011;59686;51.716;7.016;2023-09-19T11:15:06;10.60;;;2.95;;
71836;SDS011;59686;51.716;7.016;2023-09-19T11:17:34;11.02;;;2.80;;
71836;SDS011;59686;51.716;7.016;2023-09-19T11:30:31;6.75;;;2.38;;
71836;SDS011;59686;51.716;7.016;2023-09-19T11:33:18;7.15;;;2.30;;
71836;SDS011;59686;51.716;7.016;2023-09-19T11:43:49;7.05;;;2.67;;
71836;SDS011;59686;51.716;7.016;2023-09-19T11:46:16;7.55;;;2.58;;
71836;SDS011;59686;51.716;7.016;2023-09-19T11:48:50;8.02;;;2.50;;
71836;SDS011;59686;51.716;7.016;2023-09-19T11:54:38;6.90;;;2.33;;
71836;SDS011;59686;51.716;7.016;2023-09-19T11:57:06;5.47;;;2.28;;
71836;SDS011;59686;51.716;7.016;2023-09-19T11:59:37;5.47;;;2.55;;
71836;SDS011;59686;51.716;7.016;2023-09-19T12:02:04;9.48;;;2.72;;
71836;SDS011;59686;51.716;7.016;2023-09-19T12:04:35;6.18;;;2.42;;
71836;SDS011;59686;51.716;7.016;2023-09-19T12:07:16;8.07;;;2.42;;
71836;SDS011;59686;51.716;7.016;2023-09-19T12:09:44;10.25;;;2.80;;
71836;SDS011;59686;51.716;7.016;2023-09-19T12:12:22;8.75;;;2.53;;
71836;SDS011;59686;51.716;7.016;2023-09-19T12:17:54;6.43;;;2.63;;
71836;SDS011;59686;51.716;7.016;2023-09-19T12:20:19;7.68;;;2.50;;
71836;SDS011;59686;51.716;7.016;2023-09-19T12:22:46;10.35;;;2.50;;
71836;SDS011;59686;51.716;7.016;2023-09-19T12:25:14;6.50;;;2.33;;
71836;SDS011;59686;51.716;7.016;2023-09-19T12:34:26;7.78;;;2.38;;
71836;SDS011;59686;51.716;7.016;2023-09-19T12:39:41;5.43;;;2.42;;
71836;SDS011;59686;51.716;7.016;2023-09-19T12:42:12;7.78;;;2.80;;
71836;SDS011;59686;51.716;7.016;2023-09-19T12:44:48;7.30;;;2.55;;
71836;SDS011;59686;51.716;7.016;2023-09-19T12:47:20;7.47;;;2.53;;
71836;SDS011;59686;51.716;7.016;2023-09-19T12:55:20;6.88;;;2.58;;
71836;SDS011;59686;51.716;7.016;2023-09-19T13:01:14;5.38;;;2.65;;
71836;SDS011;59686;51.716;7.016;2023-09-19T13:03:42;7.20;;;2.25;;
71836;SDS011;59686;51.716;7.016;2023-09-19T13:06:07;7.47;;;2.55;;
71836;SDS011;59686;51.716;7.016;2023-09-19T13:08:39;7.70;;;2.92;;
71836;SDS011;59686;51.716;7.016;2023-09-19T13:11:15;6.45;;;2.70;;
71836;SDS011;59686;51.716;7.016;2023-09-19T13:13:47;7.75;;;2.90;;
71836;SDS011;59686;51.716;7.016;2023-09-19T13:16:15;5.95;;;2.60;;
71836;SDS011;59686;51.716;7.016;2023-09-19T13:18:54;7.30;;;2.33;;
71836;SDS011;59686;51.716;7.016;2023-09-19T13:21:29;9.32;;;2.75;;
71836;SDS011;59686;51.716;7.016;2023-09-19T13:24:23;7.75;;;2.50;;
71836;SDS011;59686;51.716;7.016;2023-09-19T13:26:55;7.30;;;2.53;;
71836;SDS011;59686;51.716;7.016;2023-09-19T13:29:21;8.60;;;2.63;;
71836;SDS011;59686;51.716;7.016;2023-09-19T13:31:47;8.93;;;2.53;;
71836;SDS011;59686;51.716;7.016;2023-09-19T13:34:18;8.68;;;2.60;;
71836;SDS011;59686;51.716;7.016;2023-09-19T13:40:10;4.68;;;2.00;;
71836;SDS011;59686;51.716;7.016;2023-09-19T13:42:37;5.35;;;2.03;;
71836;SDS011;59686;51.716;7.016;2023-09-19T13:48:24;21.63;;;3.20;;
71836;SDS011;59686;51.716;7.016;2023-09-19T13:50:50;12.98;;;2.50;;
71836;SDS011;59686;51.716;7.016;2023-09-19T13:56:38;8.15;;;2.50;;
71836;SDS011;59686;51.716;7.016;2023-09-19T13:59:05;9.18;;;2.15;;
71836;SDS011;59686;51.716;7.016;2023-09-19T14:01:31;6.53;;;2.08;;
71836;SDS011;59686;51.716;7.016;2023-09-19T14:03:57;6.75;;;2.03;;
71836;SDS011;59686;51.716;7.016;2023-09-19T14:06:23;4.78;;;1.92;;
71836;SDS011;59686;51.716;7.016;2023-09-19T14:08:49;9.18;;;2.30;;
71836;SDS011;59686;51.716;7.016;2023-09-19T14:11:15;7.03;;;2.30;;
71836;SDS011;59686;51.716;7.016;2023-09-19T14:13:41;5.53;;;2.13;;
71836;SDS011;59686;51.716;7.016;2023-09-19T14:16:12;5.22;;;2.15;;
71836;SDS011;59686;51.716;7.016;2023-09-19T14:18:40;6.68;;;2.10;;
71836;SDS011;59686;51.716;7.016;2023-09-19T14:21:07;4.15;;;1.90;;
71836;SDS011;59686;51.716;7.016;2023-09-19T14:23:36;3.17;;;1.80;;
71836;SDS011;59686;51.716;7.016;2023-09-19T14:29:24;5.70;;;1.63;;
71836;SDS011;59686;51.716;7.016;2023-09-19T14:35:12;3.40;;;1.58;;
71836;SDS011;59686;51.716;7.016;2023-09-19T14:37:39;5.47;;;1.65;;
71836;SDS011;59686;51.716;7.016;2023-09-19T14:40:05;5.68;;;1.80;;
71836;SDS011;59686;51.716;7.016;2023-09-19T14:45:28;4.93;;;1.83;;
71836;SDS011;59686;51.716;7.016;2023-09-19T14:47:56;3.60;;;1.60;;
71836;SDS011;59686;51.716;7.016;2023-09-19T14:50:22;3.67;;;1.83;;
71836;SDS011;59686;51.716;7.016;2023-09-19T14:52:48;3.40;;;1.58;;
71836;SDS011;59686;51.716;7.016;2023-09-19T14:55:16;3.13;;;1.50;;
71836;SDS011;59686;51.716;7.016;2023-09-19T15:01:07;4.55;;;1.70;;
71836;SDS011;59686;51.716;7.016;2023-09-19T15:03:37;3.08;;;1.55;;
71836;SDS011;59686;51.716;7.016;2023-09-19T15:06:12;3.83;;;1.50;;
71836;SDS011;59686;51.716;7.016;2023-09-19T15:08:42;3.53;;;1.48;;
71836;SDS011;59686;51.716;7.016;2023-09-19T15:11:16;3.25;;;1.90;;
71836;SDS011;59686;51.716;7.016;2023-09-19T15:13:42;6.18;;;1.77;;
71836;SDS011;59686;51.716;7.016;2023-09-19T15:16:09;3.42;;;1.35;;
71836;SDS011;59686;51.716;7.016;2023-09-19T15:18:36;4.40;;;1.90;;
71836;SDS011;59686;51.716;7.016;2023-09-19T15:21:03;3.80;;;1.85;;
71836;SDS011;59686;51.716;7.016;2023-09-19T15:23:32;3.72;;;1.38;;
71836;SDS011;59686;51.716;7.016;2023-09-19T15:26:02;5.13;;;1.52;;
71836;SDS011;59686;51.716;7.016;2023-09-19T15:28:29;5.65;;;1.60;;
71836;SDS011;59686;51.716;7.016;2023-09-19T15:31:04;4.85;;;1.50;;
71836;SDS011;59686;51.716;7.016;2023-09-19T15:33:31;2.95;;;1.60;;
71836;SDS011;59686;51.716;7.016;2023-09-19T15:38:30;4.22;;;1.33;;
71836;SDS011;59686;51.716;7.016;2023-09-19T15:40:57;3.80;;;1.20;;
71836;SDS011;59686;51.716;7.016;2023-09-19T15:43:24;4.30;;;1.23;;
71836;SDS011;59686;51.716;7.016;2023-09-19T15:45:49;2.83;;;1.30;;
71836;SDS011;59686;51.716;7.016;2023-09-19T15:51:37;5.05;;;1.25;;
71836;SDS011;59686;51.716;7.016;2023-09-19T15:54:09;2.17;;;1.40;;
71836;SDS011;59686;51.716;7.016;2023-09-19T15:56:38;2.90;;;1.40;;
71836;SDS011;59686;51.716;7.016;2023-09-19T15:59:06;3.85;;;1.40;;
71836;SDS011;59686;51.716;7.016;2023-09-19T16:01:32;4.95;;;1.70;;
71836;SDS011;59686;51.716;7.016;2023-09-19T16:03:58;2.55;;;1.40;;
71836;SDS011;59686;51.716;7.016;2023-09-19T16:06:24;3.80;;;1.50;;
71836;SDS011;59686;51.716;7.016;2023-09-19T16:12:13;6.72;;;1.70;;
71836;SDS011;59686;51.716;7.016;2023-09-19T16:14:39;3.00;;;1.15;;
71836;SDS011;59686;51.716;7.016;2023-09-19T16:17:05;3.35;;;1.33;;
71836;SDS011;59686;51.716;7.016;2023-09-19T16:19:33;2.72;;;1.55;;
71836;SDS011;59686;51.716;7.016;2023-09-19T16:21:58;3.63;;;1.55;;
71836;SDS011;59686;51.716;7.016;2023-09-19T16:27:46;2.53;;;1.50;;
71836;SDS011;59686;51.716;7.016;2023-09-19T16:30:12;2.72;;;1.50;;
71836;SDS011;59686;51.716;7.016;2023-09-19T16:32:38;3.53;;;1.52;;
71836;SDS011;59686;51.716;7.016;2023-09-19T16:35:04;4.40;;;1.20;;
71836;SDS011;59686;51.716;7.016;2023-09-19T16:37:31;3.65;;;1.52;;
71836;SDS011;59686;51.716;7.016;2023-09-19T16:39:56;4.25;;;1.52;;
71836;SDS011;59686;51.716;7.016;2023-09-19T16:42:22;2.90;;;1.63;;
71836;SDS011;59686;51.716;7.016;2023-09-19T16:44:48;4.15;;;1.75;;
71836;SDS011;59686;51.716;7.016;2023-09-19T16:47:13;3.85;;;1.48;;
71836;SDS011;59686;51.716;7.016;2023-09-19T16:49:39;4.50;;;1.55;;
71836;SDS011;59686;51.716;7.016;2023-09-19T16:55:27;4.25;;;1.50;;
71836;SDS011;59686;51.716;7.016;2023-09-19T16:57:52;4.10;;;1.55;;
71836;SDS011;59686;51.716;7.016;2023-09-19T17:00:19;4.68;;;1.67;;
71836;SDS011;59686;51.716;7.016;2023-09-19T17:02:45;3.30;;;1.50;;
71836;SDS011;59686;51.716;7.016;2023-09-19T17:08:33;2.92;;;1.30;;
71836;SDS011;59686;51.716;7.016;2023-09-19T17:11:06;3.58;;;1.60;;
71836;SDS011;59686;51.716;7.016;2023-09-19T17:13:35;6.72;;;1.70;;
71836;SDS011;59686;51.716;7.016;2023-09-19T17:18:35;4.78;;;1.60;;
71836;SDS011;59686;51.716;7.016;2023-09-19T17:21:01;3.75;;;1.52;;
71836;SDS011;59686;51.716;7.016;2023-09-19T17:23:29;2.47;;;1.70;;
71836;SDS011;59686;51.716;7.016;2023-09-19T17:26:03;2.72;;;1.52;;
71836;SDS011;59686;51.716;7.016;2023-09-19T17:31:56;7.28;;;1.88;;
71836;SDS011;59686;51.716;7.016;2023-09-19T17:37:44;5.75;;;2.00;;
71836;SDS011;59686;51.716;7.016;2023-09-19T17:40:10;3.17;;;1.60;;
71836;SDS011;59686;51.716;7.016;2023-09-19T17:42:37;4.18;;;1.75;;
71836;SDS011;59686;51.716;7.016;2023-09-19T17:45:07;3.00;;;1.60;;
71836;SDS011;59686;51.716;7.016;2023-09-19T17:47:35;5.53;;;1.95;;
71836;SDS011;59686;51.716;7.016;2023-09-19T17:50:04;3.47;;;1.88;;
71836;SDS011;59686;51.716;7.016;2023-09-19T17:55:54;3.33;;;1.60;;